Time;durP1;ratioP1;P1;durP2;ratioP2;P2;SDS_P1;SDS_P2;PMS_P1;PMS_P2;Temp;Humidity;BMP_temperature;BMP_pressure;BME280_temperature;BME280_humidity;BME280_pressure;Samples;Min_cycle;Max_cycle;Signal;HPM_P1;HPM_P2
2022/02/23 00:01:48;;;;;;;2.10;1.00;;;;;;;;;;5036467;28;20455;-90
2022/02/23 00:04:15;;;;;;;2.80;2.03;;;;;;;;;;5036870;28;20455;-93
2022/02/23 00:06:42;;;;;;;3.43;1.93;;;;;;;;;;5035481;28;20499;-92
2022/02/23 00:09:10;;;;;;;7.57;3.70;;;;;;;;;;5037379;28;20852;-92
2022/02/23 00:11:39;;;;;;;2.13;0.73;;;6.90;99.90;;;;;;5036470;28;20543;-89
2022/02/23 00:14:07;;;;;;;1.33;0.50;;;;;;;;;;5036173;28;20443;-91
2022/02/23 00:16:38;;;;;;;2.83;1.57;;;;;;;;;;5037121;28;20459;-92
2022/02/23 00:19:07;;;;;;;5.03;2.53;;;;;;;;;;5037724;28;20455;-93
2022/02/23 00:21:34;;;;;;;4.83;2.57;;;;;;;;;;5035529;28;20493;-90
2022/02/23 00:24:01;;;;;;;1.37;1.00;;;;;;;;;;5036263;28;21020;-91
2022/02/23 00:26:34;;;;;;;1.60;0.60;;;;;;;;;;5036950;28;20482;-91
2022/02/23 00:29:04;;;;;;;2.40;1.13;;;;;;;;;;5036010;28;20977;-91
2022/02/23 00:31:32;;;;;;;1.17;0.70;;;;;;;;;;5036158;28;20527;-91
2022/02/23 00:34:00;;;;;;;1.33;0.90;;;6.70;99.90;;;;;;5035990;28;20448;-91
2022/02/23 00:36:30;;;;;;;3.70;2.30;;;;;;;;;;5034201;28;20440;-91
2022/02/23 00:38:57;;;;;;;1.80;1.40;;;;;;;;;;5036022;28;20456;-92
2022/02/23 00:41:25;;;;;;;2.00;1.40;;;;;;;;;;5036284;28;20448;-91
2022/02/23 00:43:52;;;;;;;2.03;0.70;;;;;;;;;;5037087;28;20452;-91
2022/02/23 00:46:19;;;;;;;0.70;0.50;;;;;;;;;;5035804;28;20463;-91
2022/02/23 00:48:48;;;;;;;5.00;1.17;;;;;;;;;;5034962;28;20442;-92
2022/02/23 00:51:17;;;;;;;2.63;1.63;;;;;;;;;;5035634;28;20817;-89
2022/02/23 00:53:46;;;;;;;0.40;0.40;;;6.60;99.90;;;;;;5032295;28;20494;-90
2022/02/23 00:56:13;;;;;;;0.53;0.50;;;;;;;;;;5035400;28;20483;-90
2022/02/23 00:58:40;;;;;;;6.37;2.43;;;;;;;;;;5035503;28;20463;-90
2022/02/23 01:01:07;;;;;;;0.40;0.30;;;;;;;;;;5035267;28;20455;-88
2022/02/23 01:03:34;;;;;;;0.93;0.50;;;;;;;;;;5035618;28;20461;-90
2022/02/23 01:06:01;;;;;;;1.10;0.80;;;;;;;;;;5035116;28;20943;-90
2022/02/23 01:08:30;;;;;;;1.03;0.50;;;6.70;99.90;;;;;;5034472;28;20495;-91
2022/02/23 01:10:57;;;;;;;3.60;1.57;;;;;;;;;;5035524;28;20534;-91
2022/02/23 01:13:27;;;;;;;7.73;2.30;;;;;;;;;;5035287;28;20475;-91
2022/02/23 01:15:54;;;;;;;4.20;1.73;;;6.70;99.90;;;;;;5035465;28;20423;-90
2022/02/23 01:18:22;;;;;;;1.17;1.07;;;;;;;;;;5032184;28;20452;-92
2022/02/23 01:20:49;;;;;;;3.37;0.70;;;;;;;;;;5035209;28;20447;-90
2022/02/23 01:23:17;;;;;;;3.00;1.73;;;;;;;;;;5034567;28;20494;-92
2022/02/23 01:25:45;;;;;;;2.13;0.87;;;6.70;99.90;;;;;;5036516;28;20444;-90
2022/02/23 01:28:12;;;;;;;0.60;0.60;;;;;;;;;;5035131;28;20575;-91
2022/02/23 01:30:42;;;;;;;1.47;1.03;;;;;;;;;;5035385;28;20950;-89
2022/02/23 01:33:09;;;;;;;1.90;0.70;;;;;;;;;;5035494;28;20963;-91
2022/02/23 01:35:36;;;;;;;2.43;1.00;;;;;;;;;;5035338;28;20444;-90
2022/02/23 01:38:03;;;;;;;1.33;0.93;;;;;;;;;;5034513;28;20455;-90
2022/02/23 01:40:30;;;;;;;2.70;0.60;;;;;;;;;;5036080;28;20459;-92
2022/02/23 01:42:59;;;;;;;1.43;0.67;;;6.60;99.90;;;;;;5034999;28;20462;-91
2022/02/23 01:45:29;;;;;;;0.50;0.50;;;;;;;;;;5033295;28;20443;-93
2022/02/23 01:47:56;;;;;;;1.93;0.50;;;;;;;;;;5035745;28;20491;-92
2022/02/23 01:50:24;;;;;;;0.97;0.80;;;;;;;;;;5035170;28;20435;-92
2022/02/23 01:52:52;;;;;;;0.87;0.87;;;;;;;;;;5034216;28;20451;-93
2022/02/23 01:55:21;;;;;;;2.70;0.77;;;;;;;;;;5034594;28;20482;-90
2022/02/23 01:57:48;;;;;;;0.60;0.50;;;;;;;;;;5034919;28;20432;-91
2022/02/23 02:00:18;;;;;;;1.00;0.73;;;6.60;99.90;;;;;;5034942;28;20828;-93
2022/02/23 02:02:45;;;;;;;2.40;0.67;;;;;;;;;;5035932;28;20462;-92
2022/02/23 02:05:14;;;;;;;3.60;1.20;;;;;;;;;;5032916;28;20518;-89
2022/02/23 02:07:41;;;;;;;1.60;0.50;;;;;;;;;;5033148;28;20515;-89
2022/02/23 02:10:09;;;;;;;2.93;0.70;;;5.70;99.90;;;;;;5032642;28;20987;-92
2022/02/23 02:12:37;;;;;;;1.80;0.83;;;;;;;;;;5034582;28;20462;-91
2022/02/23 02:15:05;;;;;;;1.70;0.57;;;;;;;;;;5035651;28;20509;-90
2022/02/23 02:17:33;;;;;;;5.37;1.07;;;;;;;;;;5034737;28;20962;-90
2022/02/23 02:20:00;;;;;;;1.90;0.77;;;;;;;;;;5034811;28;20799;-91
2022/02/23 02:22:29;;;;;;;4.73;1.67;;;;;;;;;;5032422;28;20474;-94
2022/02/23 02:24:59;;;;;;;2.93;0.87;;;4.80;99.90;;;;;;5034487;28;20443;-92
2022/02/23 02:27:27;;;;;;;2.67;1.10;;;;;;;;;;5036625;28;20484;-91
2022/02/23 02:29:55;;;;;;;2.47;0.67;;;;;;;;;;5031251;28;20432;-90
2022/02/23 02:32:22;;;;;;;4.67;1.20;;;;;;;;;;5034149;28;20424;-90
2022/02/23 02:34:49;;;;;;;3.47;0.90;;;;;;;;;;5033535;28;20517;-93
2022/02/23 02:37:22;;;;;;;1.23;1.00;;;;;;;;;;5033007;28;20990;-91
2022/02/23 02:39:51;;;;;;;3.80;0.87;;;;;;;;;;5033567;28;20489;-91
2022/02/23 02:42:19;;;;;;;4.97;1.20;;;;;;;;;;5034078;28;20462;-90
2022/02/23 02:44:46;;;;;;;2.30;0.97;;;;;;;;;;5034266;28;20443;-92
2022/02/23 02:47:14;;;;;;;7.90;0.90;;;;;;;;;;5034679;28;20489;-92
2022/02/23 02:49:41;;;;;;;2.57;0.70;;;;;;;;;;5034299;28;20437;-91
2022/02/23 02:52:08;;;;;;;2.50;0.83;;;;;;;;;;5032749;28;20473;-90
2022/02/23 02:54:36;;;;;;;4.73;0.53;;;;;;;;;;5033405;28;20533;-91
2022/02/23 02:57:05;;;;;;;4.87;1.10;;;4.50;99.90;;;;;;5034098;28;20447;-91
2022/02/23 02:59:32;;;;;;;6.77;1.13;;;;;;;;;;5032636;28;20534;-92
2022/02/23 03:01:59;;;;;;;3.70;1.13;;;;;;;;;;5034202;28;20451;-92
2022/02/23 03:04:26;;;;;;;4.07;0.87;;;;;;;;;;5034466;28;20432;-93
2022/02/23 03:06:53;;;;;;;2.87;0.70;;;;;;;;;;5033680;28;21063;-94
2022/02/23 03:09:21;;;;;;;2.33;0.70;;;;;;;;;;5033434;28;20491;-93
2022/02/23 03:11:48;;;;;;;6.17;1.07;;;;;;;;;;5034860;28;20451;-92
2022/02/23 03:14:16;;;;;;;5.43;0.97;;;;;;;;;;5037710;28;20428;-94
2022/02/23 03:16:43;;;;;;;5.67;1.53;;;;;;;;;;5037935;28;20436;-92
2022/02/23 03:19:11;;;;;;;1.80;1.20;;;;;;;;;;5037693;28;20439;-90
2022/02/23 03:21:38;;;;;;;2.87;0.93;;;;;;;;;;5038913;28;20470;-93
2022/02/23 03:24:06;;;;;;;3.77;1.30;;;4.50;99.90;;;;;;5038031;28;20438;-92
2022/02/23 03:26:33;;;;;;;3.80;1.30;;;;;;;;;;5037625;28;20919;-92
2022/02/23 03:29:00;;;;;;;5.03;1.47;;;;;;;;;;5038206;28;20558;-93
2022/02/23 03:31:28;;;;;;;4.00;1.23;;;;;;;;;;5039099;28;20447;-95
2022/02/23 03:33:56;;;;;;;7.00;1.13;;;;;;;;;;5039783;28;20471;-92
2022/02/23 03:36:23;;;;;;;7.00;1.70;;;;;;;;;;5039134;28;20497;-93
2022/02/23 03:38:50;;;;;;;7.80;2.10;;;;;;;;;;5040434;28;20455;-94
2022/02/23 03:41:17;;;;;;;4.90;1.10;;;;;;;;;;5040018;28;20452;-93
2022/02/23 03:43:44;;;;;;;10.13;1.53;;;;;;;;;;5040335;28;20448;-92
2022/02/23 03:46:11;;;;;;;7.70;2.50;;;;;;;;;;5042911;28;20941;-94
2022/02/23 03:48:40;;;;;;;7.20;1.33;;;;;;;;;;5040266;28;20502;-91
2022/02/23 03:51:07;;;;;;;4.10;1.63;;;;;;;;;;5040520;28;20959;-94
2022/02/23 03:53:35;;;;;;;2.80;1.00;;;;;;;;;;5043620;28;20463;-93
2022/02/23 03:56:02;;;;;;;4.90;1.40;;;;;;;;;;5041307;28;20835;-93
2022/02/23 03:58:29;;;;;;;2.40;1.07;;;;;;;;;;5041850;28;20454;-92
2022/02/23 04:00:56;;;;;;;1.63;0.90;;;;;;;;;;5042577;28;20456;-93
2022/02/23 04:03:23;;;;;;;2.73;1.30;;;;;;;;;;5041535;28;20930;-91
2022/02/23 04:05:52;;;;;;;1.87;1.10;;;;;;;;;;5041366;28;20517;-92
2022/02/23 04:08:19;;;;;;;8.40;1.70;;;;;;;;;;5041359;28;20549;-92
2022/02/23 04:10:46;;;;;;;4.30;1.03;;;;;;;;;;5040292;28;20451;-91
2022/02/23 04:13:13;;;;;;;3.67;0.90;;;;;;;;;;5042199;28;20919;-93
2022/02/23 04:15:41;;;;;;;4.33;1.37;;;;;;;;;;5040963;28;20462;-94
2022/02/23 04:18:08;;;;;;;4.20;1.60;;;;;;;;;;5039451;28;20449;-94
2022/02/23 04:20:36;;;;;;;2.20;0.90;;;;;;;;;;5036695;28;20435;-91
2022/02/23 04:23:05;;;;;;;3.57;1.63;;;;;;;;;;5035312;28;20440;-94
2022/02/23 04:25:32;;;;;;;4.67;1.23;;;;;;;;;;5036650;28;20432;-93
2022/02/23 04:27:59;;;;;;;3.97;1.30;;;;;;;;;;5040378;28;20490;-93
2022/02/23 04:30:27;;;;;;;2.70;1.30;;;;;;;;;;5036750;28;20451;-94
2022/02/23 04:32:54;;;;;;;5.63;1.57;;;;;;;;;;5037882;28;20455;-94
2022/02/23 04:35:21;;;;;;;3.67;1.07;;;;;;;;;;5039207;28;20442;-91
2022/02/23 04:37:48;;;;;;;4.67;1.27;;;;;;;;;;5036009;28;20451;-92
2022/02/23 04:40:17;;;;;;;8.00;1.20;;;;;;;;;;5037462;28;20973;-93
2022/02/23 04:42:44;;;;;;;1.20;1.10;;;;;;;;;;5036628;28;20440;-92
2022/02/23 04:45:11;;;;;;;4.07;1.20;;;;;;;;;;5036467;28;20428;-92
2022/02/23 04:47:38;;;;;;;3.10;1.10;;;;;;;;;;5036440;28;20486;-93
2022/02/23 04:50:05;;;;;;;4.97;1.27;;;;;;;;;;5038754;28;20440;-93
2022/02/23 04:52:33;;;;;;;2.97;1.27;;;;;;;;;;5036724;28;20457;-91
2022/02/23 04:55:00;;;;;;;2.40;1.27;;;;;;;;;;5036094;28;20479;-93
2022/02/23 04:57:28;;;;;;;6.33;1.37;;;3.90;99.90;;;;;;5039837;28;20489;-93
2022/02/23 04:59:55;;;;;;;6.30;2.00;;;;;;;;;;5037076;28;20460;-92
2022/02/23 05:02:23;;;;;;;6.60;1.30;;;;;;;;;;5039575;28;20842;-93
2022/02/23 05:04:50;;;;;;;2.57;1.00;;;;;;;;;;5036361;28;20456;-91
2022/02/23 05:07:18;;;;;;;5.40;1.37;;;;;;;;;;5036740;28;20480;-92
2022/02/23 05:09:45;;;;;;;4.40;1.53;;;;;;;;;;5036090;28;20490;-94
2022/02/23 05:12:13;;;;;;;2.83;1.20;;;;;;;;;;5036998;28;20458;-90
2022/02/23 05:14:41;;;;;;;7.13;1.47;;;;;;;;;;5036693;28;20959;-91
2022/02/23 05:17:09;;;;;;;7.03;1.80;;;;;;;;;;5035796;28;20463;-93
2022/02/23 05:19:36;;;;;;;5.40;1.80;;;;;;;;;;5035600;28;20467;-92
2022/02/23 05:22:03;;;;;;;5.67;1.93;;;;;;;;;;5038482;28;20432;-92
2022/02/23 05:24:31;;;;;;;2.57;1.27;;;;;;;;;;5035946;28;20819;-91
2022/02/23 05:26:58;;;;;;;6.23;1.70;;;;;;;;;;5036701;28;20811;-92
2022/02/23 05:29:25;;;;;;;5.37;1.97;;;;;;;;;;5035442;28;20875;-92
2022/02/23 05:31:54;;;;;;;5.83;1.70;;;3.20;99.90;;;;;;5035451;28;20478;-91
2022/02/23 05:34:21;;;;;;;10.10;1.93;;;;;;;;;;5038278;28;20455;-92
2022/02/23 05:36:48;;;;;;;6.97;1.97;;;;;;;;;;5034676;28;20459;-91
2022/02/23 05:39:16;;;;;;;1.90;1.13;;;;;;;;;;5035885;28;20452;-91
2022/02/23 05:41:43;;;;;;;2.00;1.40;;;;;;;;;;5036659;28;20542;-93
2022/02/23 05:44:13;;;;;;;2.20;1.50;;;2.80;99.90;;;;;;5037771;28;20439;-91
2022/02/23 05:46:40;;;;;;;3.70;1.60;;;;;;;;;;5035573;28;20436;-91
2022/02/23 05:49:08;;;;;;;5.00;2.23;;;2.80;99.90;;;;;;5035424;28;20851;-93
2022/02/23 05:51:37;;;;;;;5.83;2.50;;;2.70;99.90;;;;;;5037203;28;20451;-92
2022/02/23 05:54:05;;;;;;;8.20;3.67;;;2.70;99.90;;;;;;5035326;28;20436;-93
2022/02/23 05:56:32;;;;;;;4.93;2.40;;;;;;;;;;5034985;28;20482;-92
2022/02/23 05:58:59;;;;;;;10.93;3.20;;;2.80;99.90;;;;;;5035293;28;20462;-91
2022/02/23 06:01:27;;;;;;;13.00;2.57;;;;;;;;;;5035322;28;20439;-90
2022/02/23 06:03:54;;;;;;;6.17;2.60;;;;;;;;;;5035097;28;20802;-89
2022/02/23 06:06:22;;;;;;;5.10;1.73;;;2.80;99.90;;;;;;5034682;28;20478;-91
2022/02/23 06:08:49;;;;;;;9.93;2.77;;;;;;;;;;5033988;28;20854;-92
2022/02/23 06:11:16;;;;;;;3.87;1.77;;;;;;;;;;5038466;28;20451;-90
2022/02/23 06:13:43;;;;;;;7.00;2.37;;;;;;;;;;5035783;28;20459;-92
2022/02/23 06:16:10;;;;;;;7.60;2.13;;;;;;;;;;5034632;28;20440;-90
2022/02/23 06:18:37;;;;;;;4.60;2.40;;;;;;;;;;5034955;28;20451;-90
2022/02/23 06:21:05;;;;;;;7.17;2.10;;;3.00;99.90;;;;;;5036859;28;20456;-91
2022/02/23 06:23:34;;;;;;;6.53;1.97;;;;;;;;;;5033926;28;20914;-90
2022/02/23 06:26:01;;;;;;;8.30;2.27;;;;;;;;;;5034880;28;20538;-89
2022/02/23 06:28:28;;;;;;;5.23;1.63;;;;;;;;;;5036599;28;20487;-89
2022/02/23 06:30:55;;;;;;;6.93;2.70;;;;;;;;;;5034490;28;20463;-91
2022/02/23 06:33:25;;;;;;;5.67;1.90;;;;;;;;;;5034736;28;20450;-91
2022/02/23 06:35:52;;;;;;;6.60;2.00;;;;;;;;;;5034453;28;20546;-91
2022/02/23 06:38:20;;;;;;;6.10;2.37;;;;;;;;;;5034225;28;20479;-92
2022/02/23 06:40:48;;;;;;;4.13;1.87;;;;;;;;;;5034528;28;20457;-91
2022/02/23 06:43:16;;;;;;;8.73;2.30;;;;;;;;;;5034809;28;20447;-91
2022/02/23 06:45:45;;;;;;;3.13;1.43;;;3.40;99.90;;;;;;5034281;28;20440;-93
2022/02/23 06:48:12;;;;;;;7.37;1.73;;;;;;;;;;5033805;28;20439;-93
2022/02/23 06:50:39;;;;;;;3.90;1.90;;;;;;;;;;5035165;28;20451;-92
2022/02/23 06:53:06;;;;;;;6.20;2.20;;;;;;;;;;5033765;28;20440;-91
2022/02/23 06:55:33;;;;;;;5.27;2.10;;;;;;;;;;5037089;28;20505;-90
2022/02/23 06:58:02;;;;;;;4.47;1.97;;;;;;;;;;5035802;28;20456;-91
2022/02/23 07:00:29;;;;;;;4.07;2.27;;;;;;;;;;5034572;28;20466;-90
2022/02/23 07:02:57;;;;;;;13.10;2.30;;;;;;;;;;5035248;28;20487;-88
2022/02/23 07:05:24;;;;;;;7.77;2.90;;;;;;;;;;5034158;28;20474;-91
2022/02/23 07:07:51;;;;;;;5.43;2.50;;;;;;;;;;5033655;28;20463;-91
2022/02/23 07:10:22;;;;;;;5.73;2.63;;;3.70;99.90;;;;;;5033917;28;20494;-89
2022/02/23 07:12:49;;;;;;;4.13;2.73;;;;;;;;;;5033874;28;20466;-93
2022/02/23 07:15:17;;;;;;;6.70;1.97;;;4.00;99.90;;;;;;5033928;28;20436;-91
2022/02/23 07:17:44;;;;;;;5.70;3.33;;;;;;;;;;5033633;28;20448;-91
2022/02/23 07:20:12;;;;;;;8.13;2.70;;;;;;;;;;5033529;28;21030;-92
2022/02/23 07:22:39;;;;;;;4.83;2.70;;;;;;;;;;5033029;28;20436;-91
2022/02/23 07:25:07;;;;;;;11.30;3.77;;;4.30;99.90;;;;;;5033518;28;20845;-92
2022/02/23 07:27:35;;;;;;;7.87;3.50;;;;;;;;;;5033808;28;20443;-92
2022/02/23 07:30:02;;;;;;;8.07;3.50;;;;;;;;;;5034578;28;20498;-94
2022/02/23 07:32:32;;;;;;;7.90;3.20;;;5.10;99.90;;;;;;5033426;28;20439;-92
2022/02/23 07:34:59;;;;;;;4.57;2.57;;;;;;;;;;5033545;28;20467;-92
2022/02/23 07:37:27;;;;;;;6.53;2.63;;;;;;;;;;5033178;28;20455;-91
2022/02/23 07:39:55;;;;;;;8.07;1.93;;;5.60;99.90;;;;;;5033834;28;20458;-92
2022/02/23 07:42:23;;;;;;;7.63;1.70;;;;;;;;;;5033640;28;20805;-92
2022/02/23 07:44:50;;;;;;;3.90;1.40;;;;;;;;;;5033708;28;20462;-91
2022/02/23 07:47:18;;;;;;;2.33;1.00;;;6.60;99.90;;;;;;5033623;28;20509;-89
2022/02/23 07:49:49;;;;;;;8.77;2.03;;;6.90;99.90;;;;;;5033361;28;20491;-91
2022/02/23 07:52:16;;;;;;;2.53;1.20;;;;;;;;;;5034310;28;20463;-93
2022/02/23 07:54:44;;;;;;;3.03;1.20;;;;;;;;;;5033558;28;20478;-88
2022/02/23 07:57:11;;;;;;;3.27;1.07;;;;;;;;;;5032705;28;20447;-88
2022/02/23 07:59:38;;;;;;;5.97;1.73;;;;;;;;;;5032576;28;20501;-88
2022/02/23 08:02:06;;;;;;;4.70;1.33;;;;;;;;;;5036339;28;20454;-89
2022/02/23 08:04:34;;;;;;;1.90;0.90;;;;;;;;;;5036191;28;20455;-89
2022/02/23 08:07:02;;;;;;;4.50;1.40;;;10.10;99.90;;;;;;5035321;28;20446;-92
2022/02/23 08:09:29;;;;;;;6.90;1.87;;;;;;;;;;5036371;28;20574;-87
2022/02/23 08:11:57;;;;;;;6.67;1.50;;;;;;;;;;5036133;28;20788;-89
2022/02/23 08:14:25;;;;;;;5.50;1.47;;;;;;;;;;5036029;28;20457;-88
2022/02/23 08:19:36;;;;;;;8.23;2.13;;;;;;;;;;5017632;28;20431;-95
2022/02/23 08:22:28;;;;;;;4.47;1.13;;;8.50;99.90;;;;;;5036162;28;20927;-93
2022/02/23 08:24:57;;;;;;;2.30;0.97;;;9.00;99.90;;;;;;5037109;28;20439;-93
2022/02/23 08:27:26;;;;;;;4.03;1.40;;;9.10;99.90;;;;;;5037665;28;20456;-92
2022/02/23 08:29:54;;;;;;;4.33;1.40;;;;;;;;;;5036908;28;20510;-93
2022/02/23 08:32:22;;;;;;;2.70;1.23;;;9.20;99.90;;;;;;5038876;28;20939;-93
2022/02/23 08:34:52;;;;;;;2.37;0.90;;;8.90;99.90;;;;;;5037096;28;20791;-93
2022/02/23 08:37:19;;;;;;;6.87;1.60;;;;;;;;;;5037502;28;20517;-94
2022/02/23 08:39:50;;;;;;;3.17;0.90;;;9.00;99.90;;;;;;5036590;28;20428;-93
2022/02/23 08:42:18;;;;;;;1.30;1.00;;;8.80;99.90;;;;;;5036767;28;20487;-93
2022/02/23 08:44:45;;;;;;;2.47;1.00;;;;;;;;;;5036361;28;20455;-89
2022/02/23 08:47:13;;;;;;;3.93;1.10;;;;;;;;;;5035601;28;20448;-91
2022/02/23 08:49:41;;;;;;;15.47;8.03;;;;;;;;;;5032793;28;20494;-90
2022/02/23 08:52:08;;;;;;;9.80;3.80;;;;;;;;;;5035868;28;20470;-93
2022/02/23 08:54:36;;;;;;;35.67;21.23;;;;;;;;;;5035729;28;20485;-92
2022/02/23 08:57:05;;;;;;;21.57;9.43;;;;;;;;;;5036194;28;20937;-92
2022/02/23 08:59:34;;;;;;;10.83;5.40;;;;;;;;;;5035860;28;20781;-92
2022/02/23 09:02:01;;;;;;;14.40;6.67;;;;;;;;;;5035933;28;20842;-92
2022/02/23 09:04:29;;;;;;;2.90;1.13;;;;;;;;;;5036013;28;20476;-91
2022/02/23 09:06:56;;;;;;;11.60;4.73;;;;;;;;;;5034287;28;21171;-88
2022/02/23 09:09:23;;;;;;;5.23;2.03;;;;;;;;;;5034057;28;20479;-89
2022/02/23 09:11:51;;;;;;;9.73;4.67;;;;;;;;;;5035309;28;20818;-89
2022/02/23 09:14:19;;;;;;;10.63;6.13;;;9.90;99.90;;;;;;5035293;28;20456;-89
2022/02/23 09:16:46;;;;;;;2.90;1.10;;;;;;;;;;5035215;28;20451;-88
2022/02/23 09:19:13;;;;;;;2.90;1.37;;;;;;;;;;5034956;28;20443;-89
2022/02/23 09:21:40;;;;;;;4.27;2.30;;;;;;;;;;5033854;28;20452;-90
2022/02/23 09:24:08;;;;;;;9.73;2.43;;;;;;;;;;5035338;28;20443;-90
2022/02/23 09:26:35;;;;;;;4.43;2.03;;;;;;;;;;5035324;28;20448;-91
2022/02/23 09:29:03;;;;;;;11.27;6.80;;;;;;;;;;5035283;28;20790;-90
2022/02/23 09:31:32;;;;;;;3.13;1.33;;;;;;;;;;5034899;28;20490;-91
2022/02/23 09:33:59;;;;;;;6.57;1.60;;;;;;;;;;5035011;28;20505;-92
2022/02/23 09:36:26;;;;;;;4.47;1.70;;;;;;;;;;5034576;28;20486;-90
2022/02/23 09:38:53;;;;;;;21.00;18.87;;;;;;;;;;5033419;28;20452;-90
2022/02/23 09:41:21;;;;;;;3.07;1.53;;;12.60;99.90;;;;;;5034981;28;20452;-90
2022/02/23 09:43:52;;;;;;;7.30;2.33;;;13.00;99.90;;;;;;5035084;28;20455;-89
2022/02/23 09:46:21;;;;;;;4.43;2.13;;;14.00;99.90;;;;;;5034647;28;20439;-91
2022/02/23 09:48:54;;;;;;;4.23;2.37;;;12.60;99.90;;;;;;5032716;28;20794;-91
2022/02/23 09:51:21;;;;;;;3.53;1.20;;;;;;;;;;5034549;28;20871;-90
2022/02/23 09:53:49;;;;;;;2.23;1.00;;;;;;;;;;5033955;28;20454;-90
2022/02/23 09:56:18;;;;;;;3.20;1.37;;;13.10;99.90;;;;;;5034432;28;20518;-89
2022/02/23 09:58:46;;;;;;;3.87;2.67;;;;;;;;;;5034991;28;20439;-91
2022/02/23 10:01:14;;;;;;;4.03;1.60;;;;;;;;;;5034207;28;20468;-90
2022/02/23 10:03:43;;;;;;;1.07;0.50;;;;;;;;;;5034265;28;20809;-91
2022/02/23 10:06:19;;;;;;;0.70;0.60;;;12.40;99.90;;;;;;5034225;28;20434;-91
2022/02/23 10:08:46;;;;;;;4.40;2.00;;;;;;;;;;5033793;28;20435;-91
2022/02/23 10:11:18;;;;;;;3.20;0.83;;;12.30;99.90;;;;;;5034513;28;20562;-91
2022/02/23 10:13:50;;;;;;;5.27;1.80;;;12.90;99.50;;;;;;5034753;28;20448;-92
2022/02/23 10:16:17;;;;;;;2.90;1.23;;;;;;;;;;5034537;28;20471;-91
2022/02/23 10:18:44;;;;;;;3.03;1.53;;;;;;;;;;5034802;28;20440;-90
2022/02/23 10:21:11;;;;;;;4.43;1.47;;;;;;;;;;5033351;28;20467;-92
2022/02/23 10:23:39;;;;;;;3.70;1.13;;;16.70;94.00;;;;;;5033532;28;20444;-89
2022/02/23 10:26:12;;;;;;;6.00;2.43;;;;;;;;;;5033858;28;20444;-89
2022/02/23 10:28:39;;;;;;;2.60;1.47;;;;;;;;;;5034006;28;20490;-89
2022/02/23 10:31:09;;;;;;;4.80;1.87;;;15.40;94.30;;;;;;5034037;28;20487;-90
2022/02/23 10:33:37;;;;;;;8.70;4.20;;;;;;;;;;5033848;28;20452;-90
2022/02/23 10:36:06;;;;;;;5.13;1.27;;;14.10;99.90;;;;;;5033661;28;20451;-92
2022/02/23 10:38:34;;;;;;;5.50;2.47;;;13.00;98.40;;;;;;5032873;28;20460;-91
2022/02/23 10:41:05;;;;;;;4.43;1.50;;;14.20;99.90;;;;;;5033401;28;20447;-91
2022/02/23 10:43:34;;;;;;;5.60;1.33;;;14.50;96.40;;;;;;5033396;28;20447;-90
2022/02/23 10:46:04;;;;;;;12.77;8.10;;;15.40;99.90;;;;;;5034013;28;20455;-91
2022/02/23 10:48:32;;;;;;;3.57;1.57;;;14.80;99.90;;;;;;5032613;28;20455;-91
2022/02/23 10:50:59;;;;;;;4.30;0.77;;;;;;;;;;5033792;28;20482;-90
2022/02/23 10:53:27;;;;;;;2.70;1.20;;;13.30;99.90;;;;;;5034772;28;20458;-91
2022/02/23 10:55:54;;;;;;;6.30;5.00;;;;;;;;;;5054104;28;20536;-90
2022/02/23 10:58:25;;;;;;;3.53;1.70;;;15.20;93.70;;;;;;5053448;28;20931;-92
2022/02/23 11:00:54;;;;;;;6.97;3.00;;;15.40;94.10;;;;;;5053938;28;20446;-94
2022/02/23 11:03:24;;;;;;;5.27;1.87;;;16.30;92.50;;;;;;5053314;28;20493;-90
2022/02/23 11:05:52;;;;;;;3.33;1.40;;;;;;;;;;5054016;28;20455;-91
2022/02/23 11:08:21;;;;;;;3.20;1.17;;;;;;;;;;5052841;28;20461;-90
2022/02/23 11:10:50;;;;;;;3.73;1.30;;;14.70;93.80;;;;;;5053178;28;20495;-90
2022/02/23 11:13:18;;;;;;;4.43;1.93;;;;;;;;;;5052739;28;20509;-91
2022/02/23 11:15:49;;;;;;;1.40;1.00;;;14.60;96.40;;;;;;5052791;28;20476;-91
2022/02/23 11:18:18;;;;;;;1.40;0.83;;;13.80;95.00;;;;;;5033738;28;20951;-91
2022/02/23 11:20:46;;;;;;;3.33;1.23;;;13.20;95.70;;;;;;5026078;28;20446;-90
2022/02/23 11:23:18;;;;;;;3.07;1.33;;;13.50;95.50;;;;;;5051852;28;20447;-90
2022/02/23 11:25:48;;;;;;;4.90;1.50;;;12.70;99.90;;;;;;5052834;28;20876;-89
2022/02/23 11:28:23;;;;;;;6.63;3.30;;;13.20;99.90;;;;;;5051720;28;20447;-88
2022/02/23 11:30:54;;;;;;;3.90;1.97;;;14.00;96.90;;;;;;5053822;28;20530;-93
2022/02/23 11:33:23;;;;;;;5.83;2.63;;;14.90;99.90;;;;;;5054120;28;20450;-89
2022/02/23 11:35:52;;;;;;;5.30;2.20;;;15.10;95.40;;;;;;5056753;28;20454;-90
2022/02/23 11:38:28;;;;;;;5.40;3.40;;;15.20;94.10;;;;;;5055714;28;20444;-90
2022/02/23 11:40:57;;;;;;;12.80;6.30;;;14.60;95.10;;;;;;5056461;28;20861;-90
2022/02/23 11:43:26;;;;;;;11.47;2.50;;;14.80;99.90;;;;;;5056531;28;20450;-90
2022/02/23 11:45:56;;;;;;;6.00;1.93;;;15.60;99.90;;;;;;5056294;28;20447;-89
2022/02/23 11:48:22;;;;;;;9.70;1.60;;;15.70;99.90;;;;;;5056423;28;20965;-88
2022/02/23 11:51:05;;;;;;;5.43;1.60;;;16.60;99.90;;;;;;5056344;28;20501;-91
2022/02/23 11:53:40;;;;;;;6.70;1.90;;;16.50;99.90;;;;;;5053345;28;20496;-90
2022/02/23 11:56:11;;;;;;;6.80;2.60;;;15.30;99.90;;;;;;5055950;28;20481;-90
2022/02/23 11:58:48;;;;;;;2.50;1.30;;;15.40;99.90;;;;;;5054816;28;20472;-91
2022/02/23 12:01:19;;;;;;;6.40;1.37;;;14.90;99.90;;;;;;5036539;28;21018;-90
2022/02/23 12:04:08;;;;;;;3.83;1.10;;;14.00;99.90;;;;;;5044101;28;20439;-93
2022/02/23 12:07:09;;;;;;;2.60;1.20;;;13.80;94.70;;;;;;5055817;28;20476;-89
2022/02/23 12:10:18;;;;;;;5.97;1.63;;;14.30;99.90;;;;;;5058110;28;20434;-92
2022/02/23 12:12:46;;;;;;;3.70;1.27;;;13.70;95.20;;;;;;5057618;28;20462;-88
2022/02/23 12:15:25;;;;;;;7.40;1.83;;;14.30;95.50;;;;;;5053434;28;20481;-94
2022/02/23 12:17:58;;;;;;;2.17;1.30;;;15.50;99.90;;;;;;5059218;28;20517;-88
2022/02/23 12:20:51;;;;;;;6.03;2.27;;;15.80;99.90;;;;;;5056607;28;20450;-90
2022/02/23 12:23:51;;;;;;;4.13;1.50;;;15.40;99.90;;;;;;5056490;28;20446;-91
2022/02/23 12:26:22;;;;;;;8.37;2.13;;;15.40;99.90;;;;;;5056755;28;20451;-91
2022/02/23 12:28:52;;;;;;;4.33;1.23;;;15.70;99.90;;;;;;5056436;28;20465;-88
2022/02/23 12:31:20;;;;;;;9.23;3.70;;;15.60;99.90;;;;;;5055393;28;20501;-90
2022/02/23 12:33:51;;;;;;;6.67;3.23;;;14.70;99.90;;;;;;5057078;28;20453;-89
2022/02/23 12:36:30;;;;;;;4.40;1.40;;;15.00;99.90;;;;;;5054985;28;20938;-90
2022/02/23 12:39:01;;;;;;;3.20;1.23;;;14.50;93.40;;;;;;5055435;28;20446;-88
2022/02/23 12:41:32;;;;;;;10.00;3.30;;;14.50;93.80;;;;;;5057677;28;20447;-92
2022/02/23 12:44:03;;;;;;;6.13;1.60;;;14.40;99.90;;;;;;5055260;28;20454;-86
2022/02/23 12:46:32;;;;;;;4.40;1.60;;;13.50;99.90;;;;;;5057840;28;20438;-88
2022/02/23 12:49:01;;;;;;;2.70;1.10;;;13.40;99.90;;;;;;5060119;28;20446;-89
2022/02/23 12:51:32;;;;;;;6.60;2.53;;;13.50;94.20;;;;;;5057426;28;20494;-91
2022/02/23 12:54:03;;;;;;;2.47;1.00;;;13.90;94.20;;;;;;5057646;28;20453;-93
2022/02/23 12:56:33;;;;;;;3.73;1.20;;;14.10;94.60;;;;;;5056595;28;20974;-89
2022/02/23 12:59:02;;;;;;;6.00;2.80;;;15.00;92.80;;;;;;5045913;28;20459;-92
2022/02/23 13:01:31;;;;;;;4.40;1.20;;;15.40;92.80;;;;;;5035429;28;20444;-90
2022/02/23 13:04:01;;;;;;;5.40;1.77;;;15.70;92.40;;;;;;4987953;28;20967;-92
2022/02/23 13:06:30;;;;;;;3.93;1.67;;;15.90;99.90;;;;;;5035904;28;20444;-92
2022/02/23 13:09:00;;;;;;;2.30;1.00;;;15.50;92.90;;;;;;5035045;28;20440;-93
2022/02/23 13:11:29;;;;;;;3.00;1.67;;;16.50;92.50;;;;;;5003748;28;20484;-93
2022/02/23 13:14:01;;;;;;;3.33;1.50;;;16.50;90.20;;;;;;5024725;28;20796;-92
2022/02/23 13:16:29;;;;;;;6.40;1.47;;;15.80;92.20;;;;;;5015827;28;20461;-92
2022/02/23 13:19:15;;;;;;;4.80;1.23;;;14.40;92.80;;;;;;5015542;28;20459;-92
2022/02/23 13:21:51;;;;;;;3.23;1.00;;;14.90;92.40;;;;;;5013394;28;20497;-92
2022/02/23 13:24:19;;;;;;;1.50;1.03;;;14.60;91.70;;;;;;5015993;28;20440;-92
2022/02/23 13:26:48;;;;;;;2.23;0.70;;;14.40;91.50;;;;;;5014614;28;20476;-92
2022/02/23 13:29:17;;;;;;;4.23;1.00;;;13.70;93.00;;;;;;5014154;28;20456;-91
2022/02/23 13:31:47;;;;;;;3.77;0.90;;;13.00;93.50;;;;;;5015161;28;21042;-92
2022/02/23 13:34:29;;;;;;;4.93;1.03;;;13.10;93.30;;;;;;5018418;28;20467;-92
2022/02/23 13:36:58;;;;;;;1.93;1.00;;;13.10;93.50;;;;;;5034196;28;20465;-92
2022/02/23 13:39:27;;;;;;;3.63;0.73;;;12.90;93.90;;;;;;5034736;28;20444;-90
2022/02/23 13:41:57;;;;;;;18.57;8.17;;;12.70;93.80;;;;;;5036405;28;20447;-92
2022/02/23 13:44:27;;;;;;;2.20;1.07;;;12.30;94.20;;;;;;5033896;28;20853;-91
2022/02/23 13:47:04;;;;;;;5.47;3.90;;;12.30;94.70;;;;;;5036561;28;20459;-94
2022/02/23 13:49:32;;;;;;;9.23;3.10;;;12.70;94.60;;;;;;5036100;28;20444;-93
2022/02/23 13:52:02;;;;;;;1.57;1.00;;;16.40;94.70;;;;;;5033639;28;20499;-92
2022/02/23 13:54:30;;;;;;;2.80;1.60;;;14.90;91.80;;;;;;5033845;28;21005;-94
2022/02/23 13:56:57;;;;;;;3.27;1.43;;;;;;;;;;5032996;28;20836;-93
2022/02/23 13:59:26;;;;;;;2.53;1.47;;;15.50;90.40;;;;;;5034899;28;20452;-93
2022/02/23 14:02:05;;;;;;;8.07;4.80;;;15.70;99.90;;;;;;5034212;28;20853;-92
2022/02/23 14:04:45;;;;;;;3.47;1.97;;;15.80;93.40;;;;;;5036258;28;20542;-92
2022/02/23 14:07:20;;;;;;;3.33;1.97;;;14.10;91.60;;;;;;5014072;28;20459;-92
2022/02/23 14:09:48;;;;;;;2.47;1.27;;;;;;;;;;5012575;28;20452;-93